Time;durP1;ratioP1;P1;durP2;ratioP2;P2;SDS_P1;SDS_P2;PMS_P1;PMS_P2;Temp;Humidity;BMP_temperature;BMP_pressure;BME280_temperature;BME280_humidity;BME280_pressure;Samples;Min_cycle;Max_cycle;Signal;HPM_P1;HPM_P2
2023/09/23 00:00:49;;;;;;;8.23;3.42;;;;;;;;;;5015822;28;20018;-68
2023/09/23 00:03:14;;;;;;;4.97;3.30;;;;;;;;;;5036072;28;20497;-68
2023/09/23 00:05:39;;;;;;;6.37;3.77;;;;;;;;;;5037589;28;20025;-68
2023/09/23 00:08:06;;;;;;;6.25;3.45;;;;;;;;;;5037254;28;20299;-68
2023/09/23 00:10:32;;;;;;;8.60;4.20;;;;;;;;;;5037408;28;20017;-69
2023/09/23 00:12:57;;;;;;;7.10;4.22;;;;;;;;;;5037113;28;20381;-67
2023/09/23 00:15:22;;;;;;;6.60;4.20;;;;;;;;;;5036970;28;20037;-67
2023/09/23 00:17:48;;;;;;;6.23;4.03;;;;;;;;;;5019323;28;20021;-68
2023/09/23 00:20:16;;;;;;;7.53;3.72;;;;;;;;;;5036875;28;20678;-67
2023/09/23 00:22:42;;;;;;;6.63;4.30;;;;;;;;;;5019374;28;20033;-68
2023/09/23 00:25:08;;;;;;;10.82;4.70;;;;;;;;;;5019231;28;20025;-68
2023/09/23 00:27:34;;;;;;;8.02;4.93;;;;;;;;;;5036966;28;20369;-68
2023/09/23 00:29:59;;;;;;;9.00;4.40;;;;;;;;;;5036898;28;20028;-68
2023/09/23 00:32:24;;;;;;;9.52;4.57;;;;;;;;;;5037071;28;20026;-68
2023/09/23 00:34:50;;;;;;;7.30;4.87;;;;;;;;;;5037033;28;20021;-67
2023/09/23 00:37:15;;;;;;;8.43;4.73;;;;;;;;;;5036932;28;20362;-68
2023/09/23 00:39:41;;;;;;;5.50;4.30;;;;;;;;;;5018878;28;20272;-68
2023/09/23 00:42:10;;;;;;;8.65;4.50;;;;;;;;;;5036578;28;20290;-68
2023/09/23 00:44:35;;;;;;;6.43;4.57;;;;;;;;;;5019000;28;20020;-68
2023/09/23 00:47:00;;;;;;;7.95;4.50;;;;;;;;;;5018670;28;20022;-68
2023/09/23 00:49:27;;;;;;;5.75;4.28;;;;;;;;;;5036240;28;20052;-68
2023/09/23 00:51:52;;;;;;;8.27;4.43;;;;;;;;;;5019014;28;20516;-68
2023/09/23 00:54:21;;;;;;;5.30;4.45;;;;;;;;;;5036420;28;20041;-68
2023/09/23 00:56:47;;;;;;;7.25;4.55;;;;;;;;;;5036643;28;20049;-67
2023/09/23 00:59:16;;;;;;;7.30;4.22;;;;;;;;;;5036466;28;20028;-67
2023/09/23 01:01:42;;;;;;;8.18;5.00;;;;;;;;;;5018258;28;20079;-67
2023/09/23 01:04:09;;;;;;;6.03;4.38;;;;;;;;;;5036160;28;20025;-67
2023/09/23 01:06:34;;;;;;;6.13;4.32;;;;;;;;;;5036196;28;20017;-67
2023/09/23 01:09:00;;;;;;;9.85;4.30;;;;;;;;;;5036244;28;20080;-67
2023/09/23 01:11:27;;;;;;;7.82;4.32;;;;;;;;;;5035925;28;20079;-67
2023/09/23 01:13:52;;;;;;;8.05;4.57;;;;;;;;;;5035875;28;20432;-67
2023/09/23 01:16:18;;;;;;;7.32;4.50;;;;;;;;;;5035977;28;20075;-68
2023/09/23 01:18:48;;;;;;;7.60;4.47;;;;;;;;;;5035959;28;20083;-68
2023/09/23 01:21:13;;;;;;;6.13;4.40;;;;;;;;;;5035928;28;20045;-67
2023/09/23 01:23:39;;;;;;;6.70;4.40;;;;;;;;;;5035948;28;20029;-67
2023/09/23 01:26:04;;;;;;;10.18;4.75;;;;;;;;;;5018247;28;20272;-67
2023/09/23 01:28:32;;;;;;;7.32;4.78;;;;;;;;;;5035743;28;20040;-67
2023/09/23 01:30:58;;;;;;;5.78;4.07;;;;;;;;;;5035829;28;20061;-67
2023/09/23 01:33:23;;;;;;;5.65;3.70;;;;;;;;;;5035763;28;20064;-67
2023/09/23 01:35:48;;;;;;;7.70;3.60;;;;;;;;;;5017854;28;20100;-67
2023/09/23 01:38:15;;;;;;;12.35;3.78;;;;;;;;;;5017897;28;20017;-68
2023/09/23 01:40:40;;;;;;;8.10;3.50;;;;;;;;;;5035356;28;20461;-67
2023/09/23 01:43:09;;;;;;;4.63;3.47;;;;;;;;;;5035548;28;20025;-67
2023/09/23 01:45:34;;;;;;;7.70;4.20;;;;;;;;;;5035667;28;20024;-67
2023/09/23 01:48:00;;;;;;;7.30;4.80;;;;;;;;;;5035655;28;20100;-67
2023/09/23 01:50:26;;;;;;;8.40;5.80;;;;;;;;;;5035448;28;20260;-67
2023/09/23 01:52:51;;;;;;;8.35;5.38;;;;;;;;;;5017623;28;20256;-66
2023/09/23 01:55:17;;;;;;;8.85;5.65;;;;;;;;;;5035221;28;20152;-68
2023/09/23 01:57:42;;;;;;;9.05;5.63;;;;;;;;;;5035571;28;20492;-68
2023/09/23 02:00:10;;;;;;;11.63;6.50;;;;;;;;;;5035072;28;20105;-68
2023/09/23 02:02:38;;;;;;;8.95;6.15;;;;;;;;;;5035357;28;20104;-67
2023/09/23 02:05:03;;;;;;;14.57;6.70;;;;;;;;;;5035214;28;20115;-67
2023/09/23 02:07:29;;;;;;;11.02;6.70;;;;;;;;;;5034972;28;20029;-67
2023/09/23 02:09:54;;;;;;;10.50;7.38;;;;;;;;;;5034757;28;20028;-67
2023/09/23 02:12:21;;;;;;;11.27;7.73;;;;;;;;;;5035151;28;20538;-67
2023/09/23 02:14:46;;;;;;;11.20;8.32;;;;;;;;;;5034737;28;20785;-67
2023/09/23 02:17:11;;;;;;;12.97;8.73;;;;;;;;;;5034884;28;20021;-67
2023/09/23 02:19:36;;;;;;;13.20;8.77;;;;;;;;;;5017373;28;20323;-67
2023/09/23 02:22:05;;;;;;;18.13;8.83;;;;;;;;;;5034913;28;20105;-68
2023/09/23 02:24:33;;;;;;;15.25;9.82;;;;;;;;;;5034226;28;20347;-68
2023/09/23 02:26:58;;;;;;;16.42;10.10;;;;;;;;;;5034727;28;20017;-68
2023/09/23 02:29:23;;;;;;;18.33;11.00;;;;;;;;;;5017040;28;20066;-68
2023/09/23 02:31:49;;;;;;;19.57;12.00;;;;;;;;;;5016827;28;20600;-68
2023/09/23 02:34:18;;;;;;;19.55;11.95;;;;;;;;;;5016712;28;20264;-69
2023/09/23 02:36:45;;;;;;;19.33;12.00;;;;;;;;;;5016549;28;20013;-67
2023/09/23 02:39:15;;;;;;;22.58;12.48;;;;;;;;;;5034449;28;20017;-68
2023/09/23 02:41:41;;;;;;;21.83;13.43;;;;;;;;;;5034568;28;20369;-68
2023/09/23 02:44:06;;;;;;;17.67;12.07;;;;;;;;;;5016779;28;20029;-68
2023/09/23 02:46:31;;;;;;;23.63;12.53;;;;;;;;;;5034252;28;20028;-68
2023/09/23 02:48:56;;;;;;;21.83;13.23;;;;;;;;;;5016480;28;20268;-68
2023/09/23 02:51:22;;;;;;;20.30;13.00;;;;;;;;;;5034317;28;20662;-68
2023/09/23 02:53:47;;;;;;;20.85;13.60;;;;;;;;;;5034222;28;20040;-68
2023/09/23 02:56:12;;;;;;;19.30;12.67;;;;;;;;;;5033825;28;20014;-68
2023/09/23 02:58:40;;;;;;;19.83;12.50;;;;;;;;;;5016220;28;20260;-68
2023/09/23 03:01:06;;;;;;;22.75;12.98;;;;;;;;;;5034366;28;20096;-68
2023/09/23 03:03:33;;;;;;;23.95;13.10;;;;;;;;;;5034158;28;20021;-68
2023/09/23 03:06:02;;;;;;;20.98;12.90;;;;;;;;;;5016266;28;20029;-68
2023/09/23 03:08:29;;;;;;;21.30;13.52;;;;;;;;;;5033853;28;20021;-67
2023/09/23 03:10:54;;;;;;;20.65;13.63;;;;;;;;;;5033981;28;20108;-68
2023/09/23 03:13:20;;;;;;;23.75;13.55;;;;;;;;;;5033860;28;20092;-67
2023/09/23 03:16:08;;;;;;;21.60;12.90;;;;;;;;;;5033665;28;20184;-67
2023/09/23 03:18:36;;;;;;;20.10;11.73;;;;;;;;;;5016524;28;20033;-68
2023/09/23 03:21:08;;;;;;;19.38;12.57;;;;;;;;;;5033807;28;20028;-67
2023/09/23 03:23:39;;;;;;;22.52;12.60;;;;;;;;;;5033570;28;20021;-68
2023/09/23 03:26:04;;;;;;;17.40;12.10;;;;;;;;;;5034172;28;20026;-68
2023/09/23 03:28:30;;;;;;;21.80;12.18;;;;;;;;;;5033730;28;20025;-68
2023/09/23 03:31:01;;;;;;;18.73;12.40;;;;;;;;;;5033813;28;20354;-67
2023/09/23 03:33:27;;;;;;;24.38;12.73;;;;;;;;;;5016051;28;20105;-69
2023/09/23 03:35:52;;;;;;;19.07;12.53;;;;;;;;;;5033681;28;20045;-68
2023/09/23 03:38:18;;;;;;;18.08;12.15;;;;;;;;;;5015122;28;20299;-68
2023/09/23 03:40:52;;;;;;;19.17;12.25;;;;;;;;;;5033413;28;20473;-68
2023/09/23 03:43:18;;;;;;;19.98;11.68;;;;;;;;;;5033273;28;20032;-68
2023/09/23 03:45:43;;;;;;;20.08;12.50;;;;;;;;;;5015416;28;20112;-68
2023/09/23 03:48:10;;;;;;;21.83;12.77;;;;;;;;;;5015315;28;20025;-68
2023/09/23 03:50:35;;;;;;;23.55;12.73;;;;;;;;;;5015269;28;20010;-68
2023/09/23 03:53:00;;;;;;;20.23;13.10;;;;;;;;;;5033092;28;20472;-68
2023/09/23 03:55:25;;;;;;;20.43;12.43;;;;;;;;;;5032917;28;20021;-68
2023/09/23 03:57:51;;;;;;;21.80;13.70;;;;;;;;;;5015281;28;20276;-68
2023/09/23 04:00:16;;;;;;;20.27;12.60;;;;;;;;;;5033072;28;20266;-68
2023/09/23 04:02:47;;;;;;;20.00;12.30;;;;;;;;;;5033113;28;20559;-68
2023/09/23 04:05:14;;;;;;;20.58;12.32;;;;;;;;;;5032953;28;20153;-68
2023/09/23 04:07:41;;;;;;;18.77;12.48;;;;;;;;;;5015254;28;20022;-68
2023/09/23 04:10:07;;;;;;;18.67;11.63;;;;;;;;;;5015513;28;20156;-68
2023/09/23 04:12:32;;;;;;;16.10;10.77;;;;;;;;;;5015589;28;20009;-68
2023/09/23 04:14:58;;;;;;;17.33;10.90;;;;;;;;;;5033224;28;20092;-68
2023/09/23 04:17:24;;;;;;;19.35;10.90;;;;;;;;;;5015608;28;20360;-68
2023/09/23 04:19:49;;;;;;;16.35;10.68;;;;;;;;;;5033451;28;20049;-67
2023/09/23 04:22:14;;;;;;;18.83;10.60;;;;;;;;;;5033094;28;20059;-68
2023/09/23 04:24:40;;;;;;;20.67;10.52;;;;;;;;;;5033014;28;20268;-68
2023/09/23 04:27:05;;;;;;;17.40;10.38;;;;;;;;;;5033356;28;20053;-68
2023/09/23 04:29:30;;;;;;;17.90;10.32;;;;;;;;;;5033338;28;20029;-68
2023/09/23 04:31:56;;;;;;;18.20;10.15;;;;;;;;;;5015817;28;20021;-68
2023/09/23 04:34:24;;;;;;;18.90;10.27;;;;;;;;;;5033050;28;20024;-68
2023/09/23 04:36:49;;;;;;;16.70;9.95;;;;;;;;;;5032918;28;20028;-68
2023/09/23 04:39:14;;;;;;;18.00;9.88;;;;;;;;;;5015463;28;20372;-68
2023/09/23 04:41:40;;;;;;;16.67;9.80;;;;;;;;;;5015333;28;20083;-68
2023/09/23 04:44:05;;;;;;;17.42;9.23;;;;;;;;;;5033100;28;20025;-69
2023/09/23 04:46:33;;;;;;;16.95;9.43;;;;;;;;;;5015508;28;20438;-69
2023/09/23 04:48:58;;;;;;;14.73;9.57;;;;;;;;;;5035238;28;20044;-68
2023/09/23 04:51:23;;;;;;;14.30;9.17;;;;;;;;;;5036516;28;20061;-68
2023/09/23 04:53:48;;;;;;;16.80;9.60;;;;;;;;;;5036694;28;20655;-68
2023/09/23 04:56:17;;;;;;;16.23;8.87;;;;;;;;;;5036583;28;20252;-69
2023/09/23 04:58:42;;;;;;;15.52;9.07;;;;;;;;;;5036622;28;20255;-68
2023/09/23 05:01:08;;;;;;;14.27;8.90;;;;;;;;;;5036452;28;20101;-68
2023/09/23 05:03:33;;;;;;;16.67;9.07;;;;;;;;;;5036641;28;20473;-68
2023/09/23 05:05:58;;;;;;;18.27;9.00;;;;;;;;;;5036326;28;20057;-68
2023/09/23 05:08:23;;;;;;;17.10;8.77;;;;;;;;;;5036325;28;20651;-68
2023/09/23 05:10:49;;;;;;;18.40;9.13;;;;;;;;;;5036054;28;20287;-68
2023/09/23 05:13:17;;;;;;;14.40;8.00;;;;;;;;;;5036277;28;20712;-68
2023/09/23 05:15:43;;;;;;;13.85;8.13;;;;;;;;;;5035929;28;20447;-68
2023/09/23 05:18:08;;;;;;;13.82;8.63;;;;;;;;;;5018175;28;20116;-68
2023/09/23 05:20:34;;;;;;;14.60;8.45;;;;;;;;;;5035846;28;20381;-69
2023/09/23 05:23:04;;;;;;;13.10;8.77;;;;;;;;;;5036167;28;20060;-69
2023/09/23 05:25:31;;;;;;;14.80;8.00;;;;;;;;;;5036151;28;20488;-68
2023/09/23 05:27:56;;;;;;;14.63;8.90;;;;;;;;;;5035738;28;20101;-68
2023/09/23 05:30:22;;;;;;;17.65;8.35;;;;;;;;;;5035947;28;20041;-68
2023/09/23 05:32:47;;;;;;;16.63;8.68;;;;;;;;;;5035984;28;20075;-68
2023/09/23 05:35:13;;;;;;;20.30;8.35;;;;;;;;;;5035552;28;20014;-68
2023/09/23 05:37:43;;;;;;;14.10;8.20;;;;;;;;;;5017926;28;20025;-68
2023/09/23 05:40:17;;;;;;;14.70;7.95;;;;;;;;;;5035656;28;20022;-68
2023/09/23 05:42:42;;;;;;;15.43;8.15;;;;;;;;;;5035771;28;20045;-68
2023/09/23 05:45:08;;;;;;;15.63;7.97;;;;;;;;;;5017996;28;20032;-68
2023/09/23 05:47:34;;;;;;;15.88;7.63;;;;;;;;;;5017675;28;20290;-68
2023/09/23 05:49:59;;;;;;;16.58;7.80;;;;;;;;;;5035441;28;20025;-68
2023/09/23 05:52:24;;;;;;;18.30;7.97;;;;;;;;;;5035259;28;20059;-68
2023/09/23 05:54:49;;;;;;;12.87;7.70;;;;;;;;;;5035452;28;20260;-68
2023/09/23 05:57:15;;;;;;;15.63;7.60;;;;;;;;;;5017310;28;20271;-68
2023/09/23 05:59:40;;;;;;;14.47;7.47;;;;;;;;;;5034216;28;20030;-68
2023/09/23 06:02:08;;;;;;;15.45;7.60;;;;;;;;;;5035200;28;20742;-69
2023/09/23 06:04:34;;;;;;;16.55;7.53;;;;;;;;;;5017485;28;20018;-68
2023/09/23 06:06:59;;;;;;;14.95;7.25;;;;;;;;;;5035081;28;20073;-68
2023/09/23 06:09:24;;;;;;;13.32;7.00;;;;;;;;;;5035057;28;20016;-68
2023/09/23 06:11:50;;;;;;;16.48;7.13;;;;;;;;;;5034938;28;20023;-68
2023/09/23 06:14:15;;;;;;;11.30;7.05;;;;;;;;;;5017351;28;20100;-68
2023/09/23 06:16:40;;;;;;;11.20;6.53;;;;;;;;;;5034931;28;20475;-68
2023/09/23 06:19:05;;;;;;;11.93;6.93;;;;;;;;;;5034948;28;20009;-68
2023/09/23 06:21:30;;;;;;;11.60;6.60;;;;;;;;;;5034871;28;20299;-68
2023/09/23 06:23:56;;;;;;;16.13;6.70;;;;;;;;;;5034782;28;20060;-68
2023/09/23 06:26:21;;;;;;;15.83;6.40;;;;;;;;;;5017240;28;20018;-68
2023/09/23 06:28:46;;;;;;;14.27;6.10;;;;;;;;;;5034976;28;20326;-68
2023/09/23 06:31:11;;;;;;;12.07;6.20;;;;;;;;;;5017184;28;20120;-68
2023/09/23 06:33:36;;;;;;;12.63;6.07;;;;;;;;;;5034742;28;20347;-68
2023/09/23 06:36:05;;;;;;;17.55;5.78;;;;;;;;;;5034586;28;20022;-69
2023/09/23 06:38:31;;;;;;;8.75;5.45;;;;;;;;;;5016643;28;20021;-68
2023/09/23 06:40:56;;;;;;;11.75;4.93;;;;;;;;;;5016715;28;20028;-68
2023/09/23 06:43:22;;;;;;;13.20;5.30;;;;;;;;;;5016738;28;20017;-68
2023/09/23 06:45:56;;;;;;;13.27;5.10;;;;;;;;;;5034627;28;20377;-68
2023/09/23 06:48:22;;;;;;;11.90;5.53;;;;;;;;;;5034273;28;20021;-68
2023/09/23 06:50:55;;;;;;;12.77;5.22;;;;;;;;;;5034522;28;20014;-69
2023/09/23 06:53:20;;;;;;;19.67;5.40;;;;;;;;;;5016742;28;20363;-68
2023/09/23 06:55:45;;;;;;;9.33;4.77;;;;;;;;;;5016543;28;20022;-68
2023/09/23 06:58:10;;;;;;;14.87;5.03;;;;;;;;;;5034266;28;20272;-69
2023/09/23 07:00:35;;;;;;;13.07;5.10;;;;;;;;;;5016680;28;20701;-68
2023/09/23 07:03:03;;;;;;;8.10;4.33;;;;;;;;;;5034109;28;20018;-68
2023/09/23 07:05:28;;;;;;;9.23;4.50;;;;;;;;;;5016188;28;20029;-69
2023/09/23 07:07:54;;;;;;;8.65;4.05;;;;;;;;;;5016560;28;20037;-68
2023/09/23 07:10:19;;;;;;;11.45;4.60;;;;;;;;;;5033889;28;20010;-68
2023/09/23 07:12:45;;;;;;;7.53;3.87;;;;;;;;;;5033908;28;20029;-68
2023/09/23 07:15:10;;;;;;;14.43;4.40;;;;;;;;;;5016213;28;20442;-68
2023/09/23 07:17:35;;;;;;;11.23;4.43;;;;;;;;;;5033883;28;20018;-68
2023/09/23 07:20:01;;;;;;;7.20;3.90;;;;;;;;;;5033868;28;20279;-68
2023/09/23 07:22:26;;;;;;;19.70;4.38;;;;;;;;;;5015937;28;20017;-68
2023/09/23 07:24:51;;;;;;;11.60;4.30;;;;;;;;;;5016028;28;20389;-68
2023/09/23 07:27:16;;;;;;;10.45;4.25;;;;;;;;;;5033693;28;20025;-69
2023/09/23 07:29:42;;;;;;;7.10;3.57;;;;;;;;;;5033927;28;20018;-68
2023/09/23 07:32:07;;;;;;;7.23;4.00;;;;;;;;;;5034004;28;20657;-68
2023/09/23 07:34:32;;;;;;;11.20;3.60;;;;;;;;;;5033927;28;20778;-69
2023/09/23 07:36:57;;;;;;;10.23;3.67;;;;;;;;;;5016034;28;20274;-68
2023/09/23 07:39:22;;;;;;;9.33;3.20;;;;;;;;;;5033868;28;20272;-69
2023/09/23 07:41:48;;;;;;;7.73;3.47;;;;;;;;;;5015876;28;20543;-69
2023/09/23 07:44:13;;;;;;;8.97;3.10;;;;;;;;;;5033992;28;20268;-69
2023/09/23 07:46:38;;;;;;;6.90;3.10;;;;;;;;;;5016108;28;20264;-68
2023/09/23 07:49:04;;;;;;;6.03;2.90;;;;;;;;;;5016313;28;20021;-69
2023/09/23 07:51:30;;;;;;;9.50;2.85;;;;;;;;;;5033921;28;20097;-66
2023/09/23 07:53:55;;;;;;;10.50;2.70;;;;;;;;;;5034639;28;20457;-67
2023/09/23 07:56:20;;;;;;;9.53;2.80;;;;;;;;;;5034975;28;20029;-67
2023/09/23 07:58:45;;;;;;;7.73;2.57;;;;;;;;;;5033618;28;20025;-67
2023/09/23 08:01:11;;;;;;;6.80;3.03;;;;;;;;;;5016010;28;20805;-69
2023/09/23 08:03:36;;;;;;;5.63;2.53;;;;;;;;;;5035249;28;20299;-67
2023/09/23 08:06:01;;;;;;;8.07;2.70;;;;;;;;;;5034696;28;20020;-68
2023/09/23 08:08:26;;;;;;;9.07;2.67;;;;;;;;;;5034968;28;20774;-67
2023/09/23 08:10:53;;;;;;;7.67;2.83;;;;;;;;;;5034885;28;20021;-68
2023/09/23 08:13:19;;;;;;;8.98;2.90;;;;;;;;;;5032504;28;20268;-68
2023/09/23 08:15:45;;;;;;;13.18;3.25;;;;;;;;;;5019678;28;20088;-68
2023/09/23 08:18:11;;;;;;;7.90;2.80;;;;;;;;;;5031731;28;20365;-68
2023/09/23 08:20:36;;;;;;;9.63;2.78;;;;;;;;;;5033164;28;20049;-68
2023/09/23 08:23:01;;;;;;;5.80;3.07;;;;;;;;;;5033200;28;20112;-67
2023/09/23 08:25:27;;;;;;;7.18;2.88;;;;;;;;;;5036788;28;20314;-68
2023/09/23 08:27:53;;;;;;;8.20;3.13;;;;;;;;;;5036770;28;20466;-68
2023/09/23 08:30:19;;;;;;;10.93;3.10;;;;;;;;;;5036875;28;20335;-69
2023/09/23 08:32:45;;;;;;;12.15;3.50;;;;;;;;;;5036826;28;20033;-68
2023/09/23 08:35:11;;;;;;;6.78;3.10;;;;;;;;;;5036795;28;20017;-68
2023/09/23 08:37:36;;;;;;;9.30;3.33;;;;;;;;;;5036860;28;20366;-69
2023/09/23 08:40:06;;;;;;;17.05;3.70;;;;;;;;;;5036527;28;20096;-69
2023/09/23 08:42:34;;;;;;;8.00;3.90;;;;;;;;;;5037110;28;20021;-68
2023/09/23 08:44:59;;;;;;;12.95;3.83;;;;;;;;;;5036847;28;20044;-69
2023/09/23 08:47:24;;;;;;;11.40;3.80;;;;;;;;;;5036574;28;20021;-69
2023/09/23 08:49:50;;;;;;;12.48;3.90;;;;;;;;;;5035365;28;20263;-69
2023/09/23 08:52:18;;;;;;;11.15;4.00;;;;;;;;;;5036866;28;20043;-69
2023/09/23 08:54:47;;;;;;;6.25;3.60;;;;;;;;;;5037041;28;20028;-68
2023/09/23 08:57:12;;;;;;;8.48;3.50;;;;;;;;;;5036583;28;20407;-68
2023/09/23 08:59:38;;;;;;;7.88;3.28;;;;;;;;;;5036219;28;20056;-69
2023/09/23 09:02:05;;;;;;;7.57;3.60;;;;;;;;;;5036165;28;20022;-68
2023/09/23 09:04:30;;;;;;;7.05;3.50;;;;;;;;;;5034958;28;20026;-69
2023/09/23 09:06:55;;;;;;;7.03;3.70;;;;;;;;;;5035743;28;20152;-68
2023/09/23 09:09:21;;;;;;;9.57;3.38;;;;;;;;;;5035900;28;20663;-68
2023/09/23 09:11:50;;;;;;;5.93;3.15;;;;;;;;;;5034411;28;20022;-69
2023/09/23 09:14:16;;;;;;;8.10;3.28;;;;;;;;;;5035768;28;20021;-69
2023/09/23 09:16:41;;;;;;;6.07;2.92;;;;;;;;;;5035722;28;20375;-68
2023/09/23 09:19:06;;;;;;;8.38;3.40;;;;;;;;;;5018104;28;20029;-68
2023/09/23 09:21:32;;;;;;;10.15;3.65;;;;;;;;;;5036567;28;20079;-67
2023/09/23 09:23:59;;;;;;;6.82;3.00;;;;;;;;;;5019353;28;20428;-70
2023/09/23 09:26:24;;;;;;;6.53;3.08;;;;;;;;;;5036046;28;20022;-69
2023/09/23 09:28:50;;;;;;;9.43;3.17;;;;;;;;;;5040024;28;20017;-68
2023/09/23 09:31:17;;;;;;;5.97;2.70;;;;;;;;;;5036123;28;20252;-68
2023/09/23 09:33:46;;;;;;;10.07;3.22;;;;;;;;;;5035559;28;20013;-68
2023/09/23 09:36:13;;;;;;;10.60;3.17;;;;;;;;;;5036093;28;20037;-69
2023/09/23 09:38:41;;;;;;;10.60;2.97;;;;;;;;;;5035569;28;20044;-69
2023/09/23 09:41:08;;;;;;;7.95;3.03;;;;;;;;;;5035561;28;20025;-68
2023/09/23 09:43:34;;;;;;;8.02;2.72;;;;;;;;;;5035766;28;20060;-70
2023/09/23 09:46:08;;;;;;;8.63;2.72;;;;;;;;;;5035506;28;20076;-67
2023/09/23 09:48:37;;;;;;;8.55;2.63;;;;;;;;;;5035531;28;20037;-72
2023/09/23 09:51:05;;;;;;;6.05;2.50;;;;;;;;;;5035544;28;20064;-72
2023/09/23 09:53:30;;;;;;;7.20;2.38;;;;;;;;;;5035738;28;20024;-70
2023/09/23 09:55:56;;;;;;;8.52;2.10;;;;;;;;;;5035228;28;20014;-71
2023/09/23 09:58:22;;;;;;;5.75;2.30;;;;;;;;;;5036769;28;20369;-71
2023/09/23 10:00:50;;;;;;;6.65;2.22;;;;;;;;;;5037284;28;20115;-69
2023/09/23 10:03:15;;;;;;;6.93;2.10;;;;;;;;;;5036444;28;20053;-67
2023/09/23 10:05:40;;;;;;;4.33;1.60;;;;;;;;;;5035376;28;20052;-68
2023/09/23 10:08:13;;;;;;;4.50;1.63;;;;;;;;;;5017288;28;20288;-72
2023/09/23 10:10:43;;;;;;;4.30;1.65;;;;;;;;;;5034714;28;20058;-70
2023/09/23 10:13:12;;;;;;;4.18;1.50;;;;;;;;;;5017282;28;20021;-70
2023/09/23 10:15:40;;;;;;;8.32;1.73;;;;;;;;;;5020828;28;20045;-70
2023/09/23 10:18:13;;;;;;;6.47;1.60;;;;;;;;;;5035167;28;20013;-69
2023/09/23 10:20:42;;;;;;;5.53;1.40;;;;;;;;;;5034765;28;20021;-70
2023/09/23 10:23:08;;;;;;;5.53;1.40;;;;;;;;;;5034587;28;20078;-69
2023/09/23 10:25:37;;;;;;;7.05;1.70;;;;;;;;;;5035174;28;20520;-71
2023/09/23 10:28:04;;;;;;;4.78;1.42;;;;;;;;;;5035292;28;20718;-70
2023/09/23 10:30:29;;;;;;;6.60;1.48;;;;;;;;;;5032384;28;20412;-71
2023/09/23 10:32:54;;;;;;;7.40;1.60;;;;;;;;;;5033513;28;20037;-70
2023/09/23 10:35:23;;;;;;;5.07;1.50;;;;;;;;;;5033527;28;20014;-71
2023/09/23 10:37:48;;;;;;;6.25;1.40;;;;;;;;;;5033472;28;20029;-70
2023/09/23 10:40:14;;;;;;;7.00;1.70;;;;;;;;;;5033590;28;20025;-71
2023/09/23 10:42:43;;;;;;;7.78;1.77;;;;;;;;;;5033462;28;20017;-71
2023/09/23 10:45:09;;;;;;;5.35;1.40;;;;;;;;;;5032376;28;20516;-71
2023/09/23 10:47:35;;;;;;;3.80;1.35;;;;;;;;;;5037867;28;20445;-69
2023/09/23 10:50:01;;;;;;;6.15;1.30;;;;;;;;;;5033876;28;20005;-69
2023/09/23 10:52:26;;;;;;;5.28;1.10;;;;;;;;;;5033101;28;20052;-69
2023/09/23 10:54:53;;;;;;;5.20;1.20;;;;;;;;;;5032888;28;20043;-69
2023/09/23 10:57:18;;;;;;;4.93;1.25;;;;;;;;;;5034564;28;20267;-70
2023/09/23 10:59:44;;;;;;;8.03;1.17;;;;;;;;;;5034601;28;20025;-70
2023/09/23 11:02:10;;;;;;;3.38;1.10;;;;;;;;;;5033728;28;20295;-69
2023/09/23 11:04:35;;;;;;;4.68;1.30;;;;;;;;;;5036322;28;20017;-69
2023/09/23 11:07:00;;;;;;;6.78;1.27;;;;;;;;;;5035999;28;20477;-70
2023/09/23 11:09:26;;;;;;;4.45;1.35;;;;;;;;;;5036334;28;20108;-69
2023/09/23 11:11:52;;;;;;;3.45;1.30;;;;;;;;;;5119640;22;20466;-70
2023/09/23 11:14:19;;;;;;;2.10;0.80;;;;;;;;;;5087543;28;20083;-69
2023/09/23 11:16:44;;;;;;;5.57;1.50;;;;;;;;;;5098726;28;20024;-69
2023/09/23 11:19:09;;;;;;;5.30;1.90;;;;;;;;;;5078097;28;20016;-69
2023/09/23 11:21:41;;;;;;;4.47;1.70;;;;;;;;;;5076444;28;20016;-70
2023/09/23 11:24:07;;;;;;;3.58;1.70;;;;;;;;;;5094037;28;20077;-70
2023/09/23 11:26:32;;;;;;;4.72;1.13;;;;;;;;;;5094424;28;20016;-69
2023/09/23 11:28:57;;;;;;;6.23;1.33;;;;;;;;;;5094443;28;20027;-70
2023/09/23 11:31:23;;;;;;;6.47;1.20;;;;;;;;;;5075858;28;20020;-70
2023/09/23 11:33:48;;;;;;;4.93;1.10;;;;;;;;;;5094507;28;20020;-70
2023/09/23 11:36:13;;;;;;;3.67;0.95;;;;;;;;;;5094633;28;20351;-70
2023/09/23 11:38:39;;;;;;;3.37;1.20;;;;;;;;;;5076527;28;20031;-69
2023/09/23 11:41:05;;;;;;;2.70;0.77;;;;;;;;;;5095026;28;20467;-69
2023/09/23 11:43:30;;;;;;;5.13;1.00;;;;;;;;;;5077403;28;20149;-68
2023/09/23 11:45:55;;;;;;;2.87;0.80;;;;;;;;;;5081724;28;20309;-67
2023/09/23 11:48:20;;;;;;;6.43;0.97;;;;;;;;;;5093717;28;20012;-68
2023/09/23 11:50:46;;;;;;;3.83;0.87;;;;;;;;;;5093734;28;20020;-70
2023/09/23 11:53:13;;;;;;;3.58;0.80;;;;;;;;;;5094202;28;20017;-70
2023/09/23 11:55:38;;;;;;;4.50;1.00;;;;;;;;;;5075827;28;20479;-69
2023/09/23 11:58:03;;;;;;;8.00;1.60;;;;;;;;;;5095088;28;20027;-71
2023/09/23 12:00:29;;;;;;;6.10;1.60;;;;;;;;;;5098017;28;20268;-69
2023/09/23 12:02:54;;;;;;;5.25;1.27;;;;;;;;;;5097621;28;20047;-69
2023/09/23 12:05:20;;;;;;;3.00;0.95;;;;;;;;;;5098184;28;20022;-69
2023/09/23 12:07:46;;;;;;;3.15;1.00;;;;;;;;;;5079942;28;20048;-69
2023/09/23 12:10:15;;;;;;;5.22;1.08;;;;;;;;;;5106662;28;20090;-69
2023/09/23 12:12:42;;;;;;;2.15;0.80;;;;;;;;;;5097560;28;20023;-70
2023/09/23 12:15:08;;;;;;;7.78;1.30;;;;;;;;;;5098086;28;20523;-70
2023/09/23 12:17:34;;;;;;;5.22;1.20;;;;;;;;;;5097736;28;20012;-68
2023/09/23 12:19:59;;;;;;;4.63;0.93;;;;;;;;;;5079822;28;20027;-68
2023/09/23 12:22:24;;;;;;;2.70;1.00;;;;;;;;;;5097893;28;20562;-70
2023/09/23 12:24:50;;;;;;;4.50;0.80;;;;;;;;;;5097772;28;20266;-69
2023/09/23 12:27:15;;;;;;;2.88;0.80;;;;;;;;;;5097670;28;20372;-69
2023/09/23 12:29:40;;;;;;;5.20;1.13;;;;;;;;;;5079415;28;20016;-69
2023/09/23 12:32:05;;;;;;;2.95;0.75;;;;;;;;;;5097914;28;20095;-69
2023/09/23 12:34:31;;;;;;;2.13;0.70;;;;;;;;;;5097358;28;20065;-69
2023/09/23 12:36:56;;;;;;;3.47;1.05;;;;;;;;;;5098449;28;20729;-69
2023/09/23 12:39:22;;;;;;;3.90;1.00;;;;;;;;;;5099265;28;20379;-71
2023/09/23 12:41:48;;;;;;;5.25;0.90;;;;;;;;;;5097608;28;20016;-70
2023/09/23 12:44:13;;;;;;;5.13;0.90;;;;;;;;;;5078974;28;20024;-69
2023/09/23 12:46:38;;;;;;;4.63;1.00;;;;;;;;;;5097360;28;20086;-69
2023/09/23 12:49:04;;;;;;;3.23;0.93;;;;;;;;;;5097247;28;20102;-69
2023/09/23 12:51:29;;;;;;;5.50;0.98;;;;;;;;;;5080289;28;20353;-70
2023/09/23 12:53:54;;;;;;;2.45;0.45;;;;;;;;;;5098518;28;20016;-69
2023/09/23 12:56:21;;;;;;;2.20;0.85;;;;;;;;;;5080686;28;20012;-69
2023/09/23 12:58:46;;;;;;;3.35;0.70;;;;;;;;;;5097176;28;20019;-69
2023/09/23 13:01:12;;;;;;;4.40;0.70;;;;;;;;;;5103934;28;20031;-68
2023/09/23 13:03:37;;;;;;;3.25;0.57;;;;;;;;;;5115685;28;20026;-71
2023/09/23 13:06:03;;;;;;;3.70;0.77;;;;;;;;;;5079203;28;20098;-70
2023/09/23 13:08:28;;;;;;;1.93;0.63;;;;;;;;;;5096806;28;20028;-70
2023/09/23 13:10:53;;;;;;;2.17;0.73;;;;;;;;;;5096239;28;20293;-71
2023/09/23 13:13:19;;;;;;;2.20;0.68;;;;;;;;;;5078297;28;20363;-70
2023/09/23 13:15:44;;;;;;;4.05;0.70;;;;;;;;;;5096468;28;20020;-71
2023/09/23 13:18:09;;;;;;;2.93;0.80;;;;;;;;;;5096783;28;20027;-70
2023/09/23 13:20:35;;;;;;;5.20;1.08;;;;;;;;;;5078223;28;20020;-70
2023/09/23 13:23:00;;;;;;;4.00;1.15;;;;;;;;;;5096726;28;20345;-71
2023/09/23 13:25:25;;;;;;;3.83;1.00;;;;;;;;;;5096497;28;20341;-69
2023/09/23 13:27:52;;;;;;;2.60;0.80;;;;;;;;;;5096505;28;20285;-71
2023/09/23 13:30:18;;;;;;;3.42;0.90;;;;;;;;;;5078619;28;20543;-70
2023/09/23 13:32:43;;;;;;;5.18;0.85;;;;;;;;;;5096478;28;20031;-70
2023/09/23 13:35:09;;;;;;;4.40;0.83;;;;;;;;;;5078308;28;20115;-70
2023/09/23 13:37:35;;;;;;;3.35;1.00;;;;;;;;;;5078300;28;20757;-69
2023/09/23 13:40:01;;;;;;;5.95;1.02;;;;;;;;;;5078296;28;20023;-71
2023/09/23 13:42:26;;;;;;;3.97;0.95;;;;;;;;;;5096806;28;20024;-71
2023/09/23 13:44:51;;;;;;;5.65;1.15;;;;;;;;;;5078210;28;20559;-71
2023/09/23 13:47:17;;;;;;;3.95;1.10;;;;;;;;;;5096388;28;20099;-70
2023/09/23 13:49:42;;;;;;;3.58;1.10;;;;;;;;;;5103793;28;20027;-70
2023/09/23 13:52:07;;;;;;;7.43;1.00;;;;;;;;;;5110685;28;20103;-70
2023/09/23 13:54:32;;;;;;;8.77;0.90;;;;;;;;;;5111065;28;20020;-70
2023/09/23 13:56:58;;;;;;;5.20;1.03;;;;;;;;;;5110946;28;20487;-70
2023/09/23 13:59:23;;;;;;;4.73;1.03;;;;;;;;;;5111267;28;20021;-70
2023/09/23 14:01:48;;;;;;;7.40;1.13;;;;;;;;;;5092952;28;20292;-70
2023/09/23 14:04:13;;;;;;;4.70;0.83;;;;;;;;;;5109452;28;20038;-70
2023/09/23 14:06:39;;;;;;;5.63;1.13;;;;;;;;;;5104063;28;20024;-69
2023/09/23 14:09:04;;;;;;;1.85;0.70;;;;;;;;;;5099561;28;20020;-68
2023/09/23 14:11:30;;;;;;;4.28;0.77;;;;;;;;;;5097787;28;20383;-69
2023/09/23 14:13:56;;;;;;;1.77;0.70;;;;;;;;;;5086362;28;20023;-69
2023/09/23 14:16:22;;;;;;;2.55;0.57;;;;;;;;;;5091841;28;20023;-69
2023/09/23 14:18:47;;;;;;;3.47;0.65;;;;;;;;;;5109487;28;20366;-69
2023/09/23 14:21:12;;;;;;;3.00;0.52;;;;;;;;;;5090698;28;20084;-69
2023/09/23 14:23:38;;;;;;;3.72;0.95;;;;;;;;;;5110995;28;20178;-69
2023/09/23 14:26:03;;;;;;;1.90;0.80;;;;;;;;;;5110622;28;20028;-69
2023/09/23 14:28:29;;;;;;;6.72;1.30;;;;;;;;;;5111291;28;20016;-68